Startpagina
METAR-TAF:

METAR-TAF

Vliegvelden :

King Fahd International Airport

Dammam, Saoedi-Arabië

breedte: 26-28N, lengte: 049-47E, hoogte: 22 m

Actueel weer

Dit bericht is 59 minuten geleden gemaakt, om 18:00 UTC
Wind 9 kt uit het noordwesten
Temperatuur 15°C
Vochtigheid 55%
Druk 1018 hPa
Zicht 10 km of meer
geen wolken onder 1500 m en geen cumulonimbus

METAR: OEDF 191800Z 31009KT CAVOK 15/06 Q1018 NOSIG

Tijdstip: 21:59 (18:59 UTC)

Verwachting

Dit bericht is 2 uur en het 59 minuten geleden gemaakt, om 16:00 UTC
Verwachting geldig van 19 om 18 UTC tot 20 om 24 UTC
Wind 14 kt uit het noordwesten
Zicht 10 km of meer
geen wolken onder 1500 m en geen cumulonimbus

TAF: OEDF 191600Z 1918/2024 32014KT CAVOK

Waarnemingen en weersverwachtingen van meer dan 4000 vliegvelden (METAR en TAF).

De beschikbare stations zijn de gele en rode punten op de kaart.

Ga met uw muis naar het station om de naam te zien.

Klik dan om waarnemingen en weersverwachtingen te zien.

kaart wijzigen: klik op de groene knoppen met een zwart kruis om in te zoomen, op de groene knop met een streepje om uit te zoomen of op de groene pijlen voor aangrenzende kaarten.


METAR-TAF: